Time;durP1;ratioP1;P1;durP2;ratioP2;P2;SDS_P1;SDS_P2;PMS_P1;PMS_P2;Temp;Humidity;BMP_temperature;BMP_pressure;BME280_temperature;BME280_humidity;BME280_pressure;Samples;Min_cycle;Max_cycle;Signal;HPM_P1;HPM_P2
2021/07/12 00:00:33;;;;;;;6.30;4.73;;;20.80;70.90;;;;;;5100725;28;20961;-91
2021/07/12 00:03:00;;;;;;;8.20;5.15;;;20.80;72.10;;;;;;5101477;28;20263;-90
2021/07/12 00:05:27;;;;;;;6.43;4.70;;;20.80;71.60;;;;;;5100942;28;20192;-90
2021/07/12 00:07:53;;;;;;;6.20;4.60;;;20.80;70.70;;;;;;5103470;28;20180;-90
2021/07/12 00:10:24;;;;;;;4.70;4.23;;;20.80;70.40;;;;;;5100723;28;20256;-91
2021/07/12 00:12:52;;;;;;;6.82;4.50;;;20.70;71.00;;;;;;5099381;28;20441;-91
2021/07/12 00:15:19;;;;;;;7.30;5.80;;;20.70;71.40;;;;;;5101429;28;20192;-90
2021/07/12 00:17:46;;;;;;;5.00;4.53;;;20.40;72.00;;;;;;5079569;28;20220;-90
2021/07/12 00:20:13;;;;;;;5.05;4.47;;;20.30;73.10;;;;;;5061115;28;20188;-90
2021/07/12 00:22:41;;;;;;;8.45;5.13;;;20.40;72.80;;;;;;5077356;28;20679;-90
2021/07/12 00:25:08;;;;;;;7.57;5.65;;;20.40;73.10;;;;;;5079026;28;20234;-90
2021/07/12 00:27:35;;;;;;;4.57;4.18;;;20.40;73.70;;;;;;5079801;28;20177;-90
2021/07/12 00:30:02;;;;;;;6.55;4.45;;;20.40;73.20;;;;;;5080834;28;20252;-90
2021/07/12 00:32:28;;;;;;;6.82;4.65;;;20.50;71.80;;;;;;5087171;28;20208;-91
2021/07/12 00:34:54;;;;;;;6.27;4.57;;;20.50;70.70;;;;;;5076923;28;20314;-91
2021/07/12 00:37:19;;;;;;;4.97;4.50;;;20.50;70.90;;;;;;5076790;28;20208;-90
2021/07/12 00:39:45;;;;;;;9.60;4.80;;;20.40;72.10;;;;;;5076692;28;20234;-90
2021/07/12 00:42:11;;;;;;;4.33;4.00;;;20.40;71.50;;;;;;5077817;28;20188;-91
2021/07/12 00:44:36;;;;;;;5.57;5.07;;;20.50;71.20;;;;;;5076785;28;20184;-90
2021/07/12 00:47:05;;;;;;;5.73;4.37;;;20.40;73.00;;;;;;5076466;28;20276;-90
2021/07/12 00:49:31;;;;;;;5.78;4.55;;;20.30;73.20;;;;;;5078393;28;20238;-90
2021/07/12 00:51:57;;;;;;;6.57;5.20;;;20.30;72.00;;;;;;5076618;28;20200;-90
2021/07/12 00:54:27;;;;;;;6.63;4.30;;;20.40;71.20;;;;;;5076596;28;20426;-90
2021/07/12 00:56:58;;;;;;;7.07;5.55;;;20.50;70.60;;;;;;5076397;28;20200;-90
2021/07/12 00:59:26;;;;;;;5.22;4.60;;;20.40;71.10;;;;;;5076362;28;20613;-90
2021/07/12 01:01:52;;;;;;;5.22;4.72;;;20.40;70.80;;;;;;5075844;28;20211;-90
2021/07/12 01:04:18;;;;;;;5.05;4.65;;;20.30;71.90;;;;;;5076145;28;20172;-90
2021/07/12 01:06:44;;;;;;;4.23;3.93;;;20.30;72.70;;;;;;5076578;28;20219;-91
2021/07/12 01:09:09;;;;;;;5.13;4.43;;;20.20;72.50;;;;;;5076389;28;20429;-91
2021/07/12 01:11:44;;;;;;;6.97;5.10;;;20.30;71.50;;;;;;5076593;28;20497;-90
2021/07/12 01:14:33;;;;;;;5.38;4.57;;;20.30;71.10;;;;;;5076309;28;20619;-90
2021/07/12 01:17:21;;;;;;;6.00;4.72;;;20.30;70.50;;;;;;5088043;28;20200;-90
2021/07/12 01:19:53;;;;;;;5.65;5.05;;;20.30;70.40;;;;;;5093870;28;20183;-90
2021/07/12 01:22:31;;;;;;;6.18;4.82;;;20.40;70.10;;;;;;5096218;28;20204;-90
2021/07/12 01:25:25;;;;;;;5.55;5.05;;;20.30;70.40;;;;;;5096778;28;20365;-91
2021/07/12 01:28:11;;;;;;;5.68;5.10;;;20.30;70.10;;;;;;5115694;28;20658;-90
2021/07/12 01:31:14;;;;;;;5.18;4.40;;;20.30;70.50;;;;;;5096868;28;20537;-90
2021/07/12 01:34:29;;;;;;;5.28;4.57;;;20.10;71.80;;;;;;5096261;28;20545;-90
2021/07/12 01:37:09;;;;;;;5.93;5.15;;;20.20;72.50;;;;;;5081320;28;20298;-90
2021/07/12 01:39:45;;;;;;;6.38;5.78;;;20.10;72.90;;;;;;5097545;28;20195;-90
2021/07/12 01:42:35;;;;;;;6.32;5.65;;;20.10;73.20;;;;;;5097187;28;20187;-91
2021/07/12 01:45:11;;;;;;;5.78;4.88;;;20.10;72.50;;;;;;5096108;28;20791;-90
2021/07/12 01:47:43;;;;;;;8.57;5.25;;;20.10;72.50;;;;;;5095887;28;20171;-90
2021/07/12 01:50:21;;;;;;;8.43;5.72;;;20.10;71.60;;;;;;5096403;28;20187;-90
2021/07/12 01:53:11;;;;;;;6.30;4.78;;;20.20;71.90;;;;;;5096212;28;20196;-90
2021/07/12 01:55:49;;;;;;;6.22;5.63;;;20.20;72.10;;;;;;5101572;28;20179;-90
2021/07/12 01:58:20;;;;;;;6.55;5.82;;;20.20;71.80;;;;;;5097821;28;20191;-90
2021/07/12 02:00:48;;;;;;;6.20;5.60;;;20.30;71.90;;;;;;5095806;28;20171;-90
2021/07/12 02:03:18;;;;;;;7.72;6.47;;;20.30;71.90;;;;;;5096470;28;20179;-90
2021/07/12 02:05:46;;;;;;;8.30;5.97;;;20.30;71.80;;;;;;5096784;28;20630;-90
2021/07/12 02:08:21;;;;;;;6.93;5.95;;;20.30;71.30;;;;;;5096699;28;20183;-90
2021/07/12 02:10:51;;;;;;;7.00;6.32;;;20.30;71.70;;;;;;5095014;28;20183;-90
2021/07/12 02:13:17;;;;;;;12.93;6.38;;;20.30;71.30;;;;;;5095534;28;20262;-90
2021/07/12 02:15:49;;;;;;;6.95;5.90;;;20.30;70.80;;;;;;5097006;28;20195;-91
2021/07/12 02:18:16;;;;;;;7.05;5.72;;;20.30;70.30;;;;;;5096923;28;20234;-90
2021/07/12 02:20:46;;;;;;;7.32;5.60;;;20.40;70.00;;;;;;5099091;28;20199;-90
2021/07/12 02:23:15;;;;;;;6.53;5.63;;;20.40;70.20;;;;;;5104063;28;20171;-90
2021/07/12 02:25:42;;;;;;;7.75;6.50;;;20.40;69.50;;;;;;5101962;28;20183;-90
2021/07/12 02:28:12;;;;;;;8.70;6.18;;;20.40;69.60;;;;;;5103067;28;20176;-90
2021/07/12 02:30:40;;;;;;;7.07;5.78;;;20.40;69.20;;;;;;5102439;28;20172;-90
2021/07/12 02:33:08;;;;;;;6.25;5.65;;;20.50;69.00;;;;;;5101978;28;20176;-90
2021/07/12 02:35:34;;;;;;;9.48;5.95;;;20.40;69.50;;;;;;5101737;28;20180;-90
2021/07/12 02:38:00;;;;;;;6.88;6.13;;;20.30;69.50;;;;;;5102582;28;20196;-90
2021/07/12 02:40:27;;;;;;;11.63;6.47;;;20.40;69.20;;;;;;5101167;28;20175;-91
2021/07/12 02:42:56;;;;;;;8.05;7.32;;;20.30;69.50;;;;;;5098914;28;20557;-90
2021/07/12 02:45:24;;;;;;;7.15;6.10;;;20.30;69.80;;;;;;5097149;28;20176;-90
2021/07/12 02:47:51;;;;;;;8.43;6.82;;;20.20;70.10;;;;;;5094662;28;20270;-91
2021/07/12 02:50:17;;;;;;;7.03;6.25;;;20.20;70.10;;;;;;5096111;28;20176;-91
2021/07/12 02:53:06;;;;;;;7.03;6.32;;;20.20;70.00;;;;;;5094727;28;20195;-90
2021/07/12 02:55:31;;;;;;;6.53;5.95;;;20.30;69.80;;;;;;5075025;28;20187;-90
2021/07/12 02:57:58;;;;;;;7.20;6.50;;;20.30;69.70;;;;;;5076861;28;20196;-90
2021/07/12 03:00:24;;;;;;;10.60;7.00;;;20.20;70.30;;;;;;5074212;28;20253;-90
2021/07/12 03:02:50;;;;;;;9.55;7.35;;;20.20;70.50;;;;;;5076321;28;20196;-90
2021/07/12 03:05:16;;;;;;;8.00;6.45;;;20.30;69.90;;;;;;5075307;28;20172;-90
2021/07/12 03:07:59;;;;;;;7.20;6.38;;;20.20;70.10;;;;;;5075004;28;20181;-91
2021/07/12 03:10:30;;;;;;;7.20;6.50;;;20.40;69.30;;;;;;5092434;28;20182;-90
2021/07/12 03:13:03;;;;;;;8.27;7.45;;;20.30;69.40;;;;;;5096431;28;20693;-89
2021/07/12 03:15:33;;;;;;;7.47;6.75;;;20.30;69.70;;;;;;5103807;28;20179;-89
2021/07/12 03:18:03;;;;;;;11.10;7.03;;;20.20;70.10;;;;;;5115466;28;20211;-89
2021/07/12 03:20:34;;;;;;;8.18;7.25;;;20.10;70.30;;;;;;5113285;28;20187;-89
2021/07/12 03:23:02;;;;;;;8.45;7.60;;;20.20;70.40;;;;;;5115648;28;20203;-89
2021/07/12 03:25:34;;;;;;;7.63;6.82;;;20.10;71.10;;;;;;5115573;28;20184;-88
2021/07/12 03:28:00;;;;;;;9.48;7.50;;;20.20;70.00;;;;;;5115105;28;20190;-89
2021/07/12 03:30:28;;;;;;;8.45;7.60;;;20.20;69.30;;;;;;5115191;28;20191;-89
2021/07/12 03:32:56;;;;;;;8.63;7.75;;;20.30;69.30;;;;;;5114964;28;20204;-89
2021/07/12 03:35:31;;;;;;;9.80;7.38;;;20.20;68.90;;;;;;5113723;28;20191;-89
2021/07/12 03:37:57;;;;;;;11.25;7.57;;;20.30;68.80;;;;;;5116539;28;20207;-89
2021/07/12 03:40:23;;;;;;;8.45;6.63;;;20.20;68.80;;;;;;5105099;28;20171;-89
2021/07/12 03:42:49;;;;;;;9.93;7.37;;;20.30;68.80;;;;;;5095594;28;20195;-89
2021/07/12 03:45:15;;;;;;;9.00;7.10;;;20.20;68.80;;;;;;5094706;28;20418;-89
2021/07/12 03:47:43;;;;;;;9.32;8.15;;;20.30;68.70;;;;;;5096347;28;20422;-89
2021/07/12 03:50:12;;;;;;;8.82;7.95;;;20.40;68.70;;;;;;5093819;28;20673;-89
2021/07/12 03:52:45;;;;;;;9.68;8.63;;;20.20;68.70;;;;;;5093577;28;20200;-89
2021/07/12 03:55:13;;;;;;;9.55;8.55;;;20.20;69.00;;;;;;5073809;28;20188;-89
2021/07/12 03:57:40;;;;;;;10.93;7.65;;;20.20;69.20;;;;;;5073697;28;20196;-89
2021/07/12 04:00:08;;;;;;;8.55;7.70;;;20.10;69.40;;;;;;5073801;28;20176;-90
2021/07/12 04:02:34;;;;;;;11.07;8.95;;;20.00;69.70;;;;;;5083185;28;20208;-89
2021/07/12 04:05:00;;;;;;;10.83;8.93;;;19.80;70.30;;;;;;5073488;28;20185;-89
2021/07/12 04:07:26;;;;;;;9.33;8.33;;;19.80;70.60;;;;;;5073612;28;20176;-89
2021/07/12 04:09:51;;;;;;;13.00;10.70;;;19.70;71.10;;;;;;5084707;28;20187;-89
2021/07/12 04:12:23;;;;;;;14.07;9.27;;;19.70;71.30;;;;;;5108132;28;20501;-89
2021/07/12 04:14:53;;;;;;;12.93;9.80;;;19.80;71.20;;;;;;5099324;28;20187;-89
2021/07/12 04:17:20;;;;;;;11.13;9.32;;;19.80;71.40;;;;;;5093979;28;20196;-89
2021/07/12 04:19:46;;;;;;;11.95;9.27;;;19.80;71.20;;;;;;5093900;28;20210;-89
2021/07/12 04:22:12;;;;;;;13.25;10.73;;;19.80;71.10;;;;;;5093507;28;20208;-89
2021/07/12 04:24:38;;;;;;;12.17;9.53;;;19.80;71.20;;;;;;5094734;28;20261;-89
2021/07/12 04:27:04;;;;;;;12.20;10.27;;;19.90;71.20;;;;;;5094928;28;20410;-89
2021/07/12 04:29:30;;;;;;;12.57;9.57;;;19.80;71.10;;;;;;5092956;28;20429;-89
2021/07/12 04:31:56;;;;;;;15.10;10.65;;;19.90;71.20;;;;;;5097786;28;20361;-90
2021/07/12 04:34:23;;;;;;;11.25;9.52;;;19.90;71.10;;;;;;5097989;28;20179;-90
2021/07/12 04:36:49;;;;;;;10.43;9.32;;;19.90;71.10;;;;;;5096108;28;20226;-89
2021/07/12 04:39:14;;;;;;;12.35;9.55;;;20.00;71.10;;;;;;5093773;28;20178;-88
2021/07/12 04:41:40;;;;;;;11.10;9.60;;;20.00;71.30;;;;;;5094071;28;20191;-89
2021/07/12 04:44:06;;;;;;;13.50;9.80;;;20.20;70.70;;;;;;5093247;28;20202;-89
2021/07/12 04:46:32;;;;;;;10.90;9.00;;;20.20;70.40;;;;;;5093263;28;20201;-89
2021/07/12 04:48:57;;;;;;;10.17;9.03;;;20.30;70.40;;;;;;5093191;28;20211;-89
2021/07/12 04:51:23;;;;;;;13.47;9.60;;;20.30;70.30;;;;;;5094459;28;20569;-89
2021/07/12 04:53:49;;;;;;;10.57;9.33;;;20.30;70.20;;;;;;5099466;28;20209;-89
2021/07/12 04:56:14;;;;;;;12.67;9.83;;;20.30;70.00;;;;;;5101499;28;20529;-88
2021/07/12 04:58:47;;;;;;;12.40;10.30;;;20.40;69.90;;;;;;5100216;28;20200;-89
2021/07/12 05:01:14;;;;;;;12.13;9.88;;;20.40;69.90;;;;;;5101273;28;20271;-89
2021/07/12 05:03:41;;;;;;;11.85;9.80;;;20.40;69.90;;;;;;5101188;28;20176;-89
2021/07/12 05:06:07;;;;;;;9.57;8.50;;;20.50;69.80;;;;;;5107062;28;20220;-89
2021/07/12 05:08:33;;;;;;;11.60;9.93;;;20.60;69.70;;;;;;5113356;28;20217;-89
2021/07/12 05:10:59;;;;;;;10.57;9.47;;;20.60;69.50;;;;;;5104951;28;20503;-89
2021/07/12 05:13:25;;;;;;;11.75;10.23;;;20.60;69.90;;;;;;5101738;28;20206;-89
2021/07/12 05:15:51;;;;;;;12.30;9.82;;;20.80;69.60;;;;;;5100183;28;20195;-89
2021/07/12 05:18:17;;;;;;;12.77;10.13;;;20.80;68.90;;;;;;5099452;28;20203;-89
2021/07/12 05:20:42;;;;;;;10.77;9.67;;;21.00;69.00;;;;;;5096228;28;20207;-89
2021/07/12 05:23:08;;;;;;;10.20;9.20;;;21.40;68.50;;;;;;5096522;28;20180;-89
2021/07/12 05:25:34;;;;;;;9.93;7.73;;;21.80;66.80;;;;;;5096397;28;20234;-89
2021/07/12 05:28:00;;;;;;;9.40;8.10;;;22.30;65.30;;;;;;5096054;28;20586;-89
2021/07/12 05:30:26;;;;;;;9.63;7.00;;;22.80;63.40;;;;;;5086805;28;20188;-89
2021/07/12 05:32:51;;;;;;;8.83;7.40;;;23.30;61.90;;;;;;5094815;28;20472;-89
2021/07/12 05:35:17;;;;;;;8.30;7.50;;;23.30;60.70;;;;;;5096165;28;20183;-89
2021/07/12 05:37:43;;;;;;;7.80;7.00;;;23.40;60.50;;;;;;5096036;28;20200;-89
2021/07/12 05:40:09;;;;;;;8.17;7.00;;;23.40;60.10;;;;;;5096227;28;20186;-89
2021/07/12 05:42:35;;;;;;;7.13;6.37;;;23.40;60.30;;;;;;5092433;28;20462;-89
2021/07/12 05:45:01;;;;;;;9.63;6.50;;;23.60;60.70;;;;;;5075527;28;20415;-89
2021/07/12 05:47:27;;;;;;;8.03;7.23;;;23.70;60.50;;;;;;5075612;28;20432;-89
2021/07/12 05:49:53;;;;;;;7.30;6.60;;;23.90;60.40;;;;;;5076943;28;20172;-89
2021/07/12 05:52:18;;;;;;;8.13;6.70;;;24.50;59.70;;;;;;5075189;28;20196;-89
2021/07/12 05:54:44;;;;;;;7.17;5.83;;;25.20;56.90;;;;;;5075675;28;20426;-89
2021/07/12 05:57:10;;;;;;;6.40;5.80;;;25.60;54.40;;;;;;5075403;28;20202;-89
2021/07/12 05:59:36;;;;;;;9.57;5.90;;;25.90;52.90;;;;;;5075580;28;20761;-89
2021/07/12 06:02:04;;;;;;;14.40;6.10;;;26.10;52.60;;;;;;5081327;28;20203;-89
2021/07/12 06:04:29;;;;;;;6.83;5.63;;;26.40;51.50;;;;;;5079006;28;20429;-89
2021/07/12 06:06:55;;;;;;;6.03;5.00;;;26.10;51.00;;;;;;5074962;28;20781;-89
2021/07/12 06:09:21;;;;;;;5.60;4.63;;;25.50;51.80;;;;;;5082208;28;20179;-89
2021/07/12 06:11:47;;;;;;;7.33;5.60;;;25.40;53.00;;;;;;5103903;28;20680;-89
2021/07/12 06:14:12;;;;;;;5.40;4.93;;;25.60;53.00;;;;;;5096614;28;20648;-88
2021/07/12 06:16:38;;;;;;;7.63;5.30;;;25.40;53.20;;;;;;5094456;28;20410;-89
2021/07/12 06:19:04;;;;;;;6.20;5.00;;;25.40;53.90;;;;;;5094731;28;20176;-89
2021/07/12 06:21:30;;;;;;;6.40;4.90;;;25.40;54.10;;;;;;5094643;28;20200;-89
2021/07/12 06:23:56;;;;;;;6.60;5.30;;;25.50;54.10;;;;;;5096417;28;20428;-89
2021/07/12 06:26:21;;;;;;;4.90;4.50;;;25.40;53.70;;;;;;5094787;28;20176;-89
2021/07/12 06:28:47;;;;;;;8.03;5.57;;;25.10;53.90;;;;;;5096145;28;20180;-89
2021/07/12 06:31:13;;;;;;;11.07;8.17;;;25.10;54.80;;;;;;5076797;28;20228;-89
2021/07/12 06:33:39;;;;;;;6.77;4.87;;;24.90;56.10;;;;;;5074451;28;20185;-89
2021/07/12 06:36:06;;;;;;;5.50;4.73;;;25.00;55.50;;;;;;5074850;28;20522;-89
2021/07/12 06:38:32;;;;;;;4.83;4.10;;;25.20;55.60;;;;;;5075265;28;20486;-89
2021/07/12 06:40:58;;;;;;;5.13;4.37;;;25.60;54.90;;;;;;5074349;28;20447;-89
2021/07/12 06:43:24;;;;;;;5.10;4.23;;;25.70;54.00;;;;;;5075871;28;20418;-89
2021/07/12 06:45:50;;;;;;;5.10;4.27;;;26.10;53.60;;;;;;5074691;28;20568;-89
2021/07/12 06:48:16;;;;;;;6.17;5.07;;;25.90;52.50;;;;;;5074450;28;20189;-90
2021/07/12 06:50:41;;;;;;;6.13;4.93;;;25.90;52.10;;;;;;5074155;28;20346;-90
2021/07/12 06:53:07;;;;;;;5.03;4.50;;;26.00;52.80;;;;;;5076008;28;20603;-89
2021/07/12 06:55:33;;;;;;;4.53;4.10;;;25.90;52.00;;;;;;5074223;28;20251;-89
2021/07/12 06:58:00;;;;;;;4.23;3.93;;;26.00;52.60;;;;;;5086628;28;20451;-90
2021/07/12 07:00:26;;;;;;;5.50;4.50;;;26.10;52.40;;;;;;5074710;28;20548;-90
2021/07/12 07:02:52;;;;;;;5.80;4.40;;;26.30;52.40;;;;;;5074764;28;20475;-90
2021/07/12 07:05:18;;;;;;;6.70;4.97;;;26.20;52.10;;;;;;5074284;28;20412;-89
2021/07/12 07:07:44;;;;;;;10.93;5.90;;;26.10;52.00;;;;;;5074384;28;20674;-89
2021/07/12 07:10:10;;;;;;;5.23;4.83;;;26.00;52.20;;;;;;5074489;28;20422;-89
2021/07/12 07:12:36;;;;;;;5.57;4.50;;;26.00;52.60;;;;;;5074290;28;20570;-89
2021/07/12 07:15:02;;;;;;;5.20;4.50;;;25.90;52.40;;;;;;5075672;28;20445;-90
2021/07/12 07:17:28;;;;;;;7.33;4.97;;;25.70;53.10;;;;;;5079030;28;20196;-90
2021/07/12 07:19:54;;;;;;;6.10;4.20;;;25.60;53.50;;;;;;5079252;28;20407;-89
2021/07/12 07:22:19;;;;;;;5.20;4.80;;;25.20;54.60;;;;;;5075313;28;20202;-90
2021/07/12 07:24:45;;;;;;;5.97;4.70;;;25.30;55.10;;;;;;5077190;28;20168;-89
2021/07/12 07:27:11;;;;;;;5.57;4.90;;;25.60;54.90;;;;;;5076898;28;20250;-89
2021/07/12 07:29:37;;;;;;;4.77;4.00;;;25.80;54.40;;;;;;5078641;28;20180;-89
2021/07/12 07:32:03;;;;;;;4.30;3.90;;;25.90;53.80;;;;;;5079339;28;20211;-90
2021/07/12 07:34:29;;;;;;;4.10;3.70;;;26.00;53.00;;;;;;5079236;28;20415;-90
2021/07/12 07:36:56;;;;;;;4.70;3.67;;;26.10;52.70;;;;;;5078305;28;20977;-89
2021/07/12 07:39:23;;;;;;;5.63;3.70;;;26.10;52.90;;;;;;5077561;28;20259;-89
2021/07/12 07:41:48;;;;;;;4.23;3.83;;;26.10;52.70;;;;;;5078663;28;20467;-90
2021/07/12 07:44:14;;;;;;;4.03;3.73;;;26.10;52.60;;;;;;5077698;28;20925;-89
2021/07/12 07:46:41;;;;;;;4.30;3.90;;;25.90;51.60;;;;;;5076366;28;20223;-89
2021/07/12 07:49:07;;;;;;;6.70;4.53;;;25.90;52.40;;;;;;5076560;28;20418;-90
2021/07/12 07:51:36;;;;;;;5.70;4.10;;;25.90;52.70;;;;;;5079007;28;20480;-90
2021/07/12 07:54:05;;;;;;;6.33;5.53;;;25.80;52.70;;;;;;5093796;28;20418;-89
2021/07/12 07:56:31;;;;;;;4.00;3.73;;;25.50;53.40;;;;;;5076909;28;20417;-89
2021/07/12 07:58:57;;;;;;;4.80;3.80;;;25.40;53.90;;;;;;5076162;28;20455;-89
2021/07/12 08:01:22;;;;;;;3.90;3.60;;;25.40;54.90;;;;;;5074462;28;20492;-89
2021/07/12 08:03:48;;;;;;;4.50;3.87;;;25.50;55.10;;;;;;5074298;28;20191;-89
2021/07/12 08:06:17;;;;;;;4.37;3.53;;;25.50;55.00;;;;;;5075136;28;20184;-89
2021/07/12 08:08:44;;;;;;;4.47;3.77;;;25.20;55.10;;;;;;5078489;28;20169;-89
2021/07/12 08:11:11;;;;;;;5.30;4.27;;;25.40;55.40;;;;;;5095929;28;20440;-89
2021/07/12 08:13:36;;;;;;;4.53;4.10;;;25.40;54.40;;;;;;5095527;28;20406;-89
2021/07/12 08:16:03;;;;;;;3.90;3.60;;;25.40;54.00;;;;;;5095674;28;20958;-89
2021/07/12 08:18:29;;;;;;;5.33;3.20;;;25.60;54.00;;;;;;5095715;28;20215;-89
2021/07/12 08:20:55;;;;;;;3.63;3.33;;;25.80;53.20;;;;;;5097156;28;20773;-89
2021/07/12 08:23:23;;;;;;;3.70;3.40;;;26.00;52.10;;;;;;5095474;28;20221;-89
2021/07/12 08:25:49;;;;;;;4.53;3.30;;;26.00;52.30;;;;;;5096187;28;20409;-89
2021/07/12 08:28:16;;;;;;;8.97;6.87;;;26.30;51.80;;;;;;5108724;28;20425;-89
2021/07/12 08:30:41;;;;;;;3.60;2.97;;;26.50;51.10;;;;;;5093345;28;20436;-89
2021/07/12 08:33:07;;;;;;;3.93;3.33;;;26.70;50.30;;;;;;5093233;28;20447;-89
2021/07/12 08:35:33;;;;;;;4.17;3.10;;;27.00;50.30;;;;;;5091585;28;20487;-89
2021/07/12 08:37:59;;;;;;;3.90;3.23;;;27.10;49.40;;;;;;5090168;28;20219;-89
2021/07/12 08:40:25;;;;;;;7.50;3.07;;;27.30;48.80;;;;;;5088992;28;20429;-89
2021/07/12 08:42:54;;;;;;;3.53;3.30;;;27.30;48.90;;;;;;5090110;28;20211;-89
2021/07/12 08:45:21;;;;;;;6.33;4.90;;;27.20;47.90;;;;;;5090838;28;20173;-89
2021/07/12 08:47:46;;;;;;;4.20;3.17;;;27.10;49.00;;;;;;5096899;28;20410;-88
2021/07/12 08:50:12;;;;;;;3.70;3.40;;;27.20;49.30;;;;;;5086424;28;21004;-89
2021/07/12 08:52:45;;;;;;;4.20;3.80;;;27.30;49.20;;;;;;5077337;28;20674;-89
2021/07/12 08:55:11;;;;;;;5.13;4.10;;;27.50;48.80;;;;;;5077174;28;20426;-89
2021/07/12 08:57:38;;;;;;;3.07;2.83;;;27.70;47.50;;;;;;5077376;28;20455;-89
2021/07/12 09:00:09;;;;;;;3.50;3.20;;;27.60;47.50;;;;;;5077123;28;20448;-88
2021/07/12 09:02:37;;;;;;;3.50;3.20;;;27.20;48.30;;;;;;5077075;28;20473;-89
2021/07/12 09:05:07;;;;;;;4.37;3.53;;;27.20;48.60;;;;;;5076969;28;20858;-89
2021/07/12 09:07:33;;;;;;;3.60;3.30;;;27.50;48.70;;;;;;5077642;28;20890;-89
2021/07/12 09:10:11;;;;;;;3.10;2.80;;;27.70;48.30;;;;;;5090878;28;20437;-89
2021/07/12 09:12:41;;;;;;;3.67;3.23;;;27.90;47.40;;;;;;5097696;28;20202;-90
2021/07/12 09:15:12;;;;;;;3.27;2.93;;;28.00;47.40;;;;;;5097778;28;20442;-89
2021/07/12 09:17:41;;;;;;;4.27;3.57;;;27.90;47.10;;;;;;5098730;28;20473;-89
2021/07/12 09:20:10;;;;;;;3.57;3.27;;;27.70;47.10;;;;;;5099466;28;20410;-89
2021/07/12 09:22:39;;;;;;;3.70;2.77;;;27.40;47.10;;;;;;5097627;28;20497;-89
2021/07/12 09:25:12;;;;;;;4.60;3.73;;;27.30;47.10;;;;;;5101580;28;20421;-89
2021/07/12 09:27:39;;;;;;;3.60;3.30;;;27.40;47.60;;;;;;5099563;28;20892;-89
2021/07/12 09:30:07;;;;;;;4.40;4.10;;;27.60;47.30;;;;;;5098295;28;20427;-89
2021/07/12 09:32:34;;;;;;;3.50;2.97;;;27.80;46.90;;;;;;5096972;28;20525;-89
2021/07/12 09:35:06;;;;;;;4.20;3.90;;;28.00;47.00;;;;;;5100050;28;20426;-89
2021/07/12 09:37:33;;;;;;;6.43;3.50;;;28.00;45.90;;;;;;5099686;28;20477;-90
2021/07/12 09:39:59;;;;;;;3.67;3.00;;;28.10;46.20;;;;;;5098028;28;20405;-89
2021/07/12 09:42:31;;;;;;;4.53;3.10;;;28.30;45.70;;;;;;5096912;28;20832;-89
2021/07/12 09:45:17;;;;;;;3.90;3.43;;;28.60;45.10;;;;;;5109685;28;20505;-90
2021/07/12 09:47:46;;;;;;;3.90;3.60;;;28.40;44.50;;;;;;5098172;28;20405;-89
2021/07/12 09:50:17;;;;;;;5.13;3.20;;;28.20;44.90;;;;;;5098832;28;20502;-89
2021/07/12 09:52:54;;;;;;;4.43;2.53;;;28.40;44.80;;;;;;5095980;28;20932;-90
2021/07/12 09:55:23;;;;;;;3.97;3.67;;;28.70;44.10;;;;;;5094020;28;20457;-89
2021/07/12 09:58:11;;;;;;;4.03;2.67;;;28.90;43.60;;;;;;5096913;28;20468;-90
2021/07/12 10:00:41;;;;;;;2.93;2.63;;;29.10;43.10;;;;;;5097025;28;20402;-89
2021/07/12 10:03:07;;;;;;;5.03;3.40;;;28.90;41.30;;;;;;5096284;28;20406;-89
2021/07/12 10:05:33;;;;;;;3.07;2.87;;;28.90;41.00;;;;;;5098326;28;20407;-89
2021/07/12 10:08:00;;;;;;;4.17;3.30;;;28.50;41.10;;;;;;5099410;28;20543;-89
2021/07/12 10:10:26;;;;;;;3.00;2.70;;;28.80;41.90;;;;;;5099295;28;20507;-89
2021/07/12 10:12:53;;;;;;;4.10;3.30;;;29.00;43.20;;;;;;5101249;28;20522;-89
2021/07/12 10:15:19;;;;;;;3.27;2.60;;;29.00;41.60;;;;;;5101183;28;20195;-89
2021/07/12 10:17:46;;;;;;;3.80;3.23;;;29.20;42.60;;;;;;5099684;28;20459;-89
2021/07/12 10:20:14;;;;;;;8.00;3.00;;;29.10;42.10;;;;;;5099546;28;20221;-89
2021/07/12 10:22:42;;;;;;;3.40;2.90;;;29.30;42.60;;;;;;5098215;28;20430;-89
2021/07/12 10:25:10;;;;;;;3.33;2.87;;;29.30;42.00;;;;;;5099891;28;20417;-89
2021/07/12 10:27:57;;;;;;;3.60;3.10;;;28.90;41.40;;;;;;5098311;28;20450;-89
2021/07/12 10:30:34;;;;;;;4.60;3.10;;;28.40;42.60;;;;;;5096781;28;20512;-90
2021/07/12 10:33:03;;;;;;;3.10;2.80;;;28.60;45.00;;;;;;5096458;28;20779;-89
2021/07/12 10:35:49;;;;;;;4.63;3.70;;;28.60;43.40;;;;;;5095929;28;20391;-90
2021/07/12 10:38:43;;;;;;;3.30;3.00;;;28.70;43.70;;;;;;5095216;28;20449;-90
2021/07/12 10:41:22;;;;;;;4.30;2.73;;;28.50;43.20;;;;;;5105254;28;20431;-89
2021/07/12 10:43:58;;;;;;;2.53;2.33;;;28.10;42.50;;;;;;5095734;28;20424;-90
2021/07/12 10:46:25;;;;;;;2.17;1.93;;;28.10;42.50;;;;;;5096131;28;20409;-89
2021/07/12 10:48:51;;;;;;;2.00;1.90;;;28.10;43.70;;;;;;5094956;28;20419;-90
2021/07/12 10:51:21;;;;;;;5.57;2.40;;;27.70;41.20;;;;;;5094752;28;20494;-90
2021/07/12 10:54:01;;;;;;;3.60;2.63;;;27.80;42.50;;;;;;5095211;28;20515;-90
2021/07/12 10:57:04;;;;;;;2.83;2.10;;;27.70;41.80;;;;;;5096993;28;20507;-90
2021/07/12 10:59:33;;;;;;;5.13;1.97;;;27.70;42.20;;;;;;5093782;28;20438;-90
2021/07/12 11:02:17;;;;;;;2.23;2.03;;;27.80;42.30;;;;;;5094774;28;20957;-90
2021/07/12 11:04:51;;;;;;;2.23;2.03;;;27.60;42.00;;;;;;5094986;28;20419;-90
2021/07/12 11:07:19;;;;;;;2.50;2.23;;;27.40;43.00;;;;;;5091730;28;20486;-90
2021/07/12 11:09:52;;;;;;;3.30;2.23;;;27.50;43.70;;;;;;5074802;28;20496;-90
2021/07/12 11:12:27;;;;;;;2.07;1.97;;;27.50;43.60;;;;;;5074461;28;20508;-90
2021/07/12 11:15:13;;;;;;;1.77;1.67;;;27.40;43.60;;;;;;5075002;28;20438;-90
2021/07/12 11:18:02;;;;;;;2.73;2.53;;;27.40;43.70;;;;;;5074592;28;20472;-90
2021/07/12 11:20:47;;;;;;;2.30;2.20;;;27.30;42.80;;;;;;5074461;28;20449;-90
2021/07/12 11:23:38;;;;;;;2.53;1.67;;;27.20;43.20;;;;;;5075010;28;20451;-90
2021/07/12 11:26:24;;;;;;;2.17;1.90;;;26.90;42.60;;;;;;5074748;28;20494;-90
2021/07/12 11:28:51;;;;;;;2.10;2.00;;;27.10;43.70;;;;;;5075929;28;20792;-90
2021/07/12 11:31:39;;;;;;;2.43;2.23;;;27.20;43.60;;;;;;5075593;28;20441;-90
2021/07/12 11:34:39;;;;;;;2.60;2.00;;;27.50;42.60;;;;;;5077183;28;20885;-90
2021/07/12 11:37:15;;;;;;;2.63;1.80;;;27.70;42.10;;;;;;5079916;28;20470;-89
2021/07/12 11:39:46;;;;;;;5.13;1.90;;;27.70;42.00;;;;;;5074639;28;20929;-90
2021/07/12 11:42:19;;;;;;;1.57;1.47;;;27.80;40.20;;;;;;5074875;28;20778;-90
2021/07/12 11:44:53;;;;;;;2.53;2.20;;;27.70;40.00;;;;;;5074776;28;20827;-90
2021/07/12 11:47:32;;;;;;;2.50;2.30;;;27.80;40.90;;;;;;5075137;28;20465;-90
2021/07/12 11:50:05;;;;;;;2.40;2.20;;;28.00;41.90;;;;;;5074763;28;20423;-90
2021/07/12 11:52:31;;;;;;;2.70;2.23;;;27.90;41.60;;;;;;5076237;28;20447;-90
2021/07/12 11:54:59;;;;;;;2.13;2.00;;;28.10;41.80;;;;;;5078844;28;20438;-90
2021/07/12 11:57:25;;;;;;;2.83;1.90;;;27.90;41.80;;;;;;5078308;28;20458;-90
2021/07/12 11:59:51;;;;;;;2.70;2.50;;;27.90;42.60;;;;;;5078123;28;20445;-91
2021/07/12 12:02:17;;;;;;;2.90;2.70;;;27.60;42.80;;;;;;5079424;28;20283;-90
2021/07/12 12:04:55;;;;;;;2.63;2.43;;;27.40;43.80;;;;;;5083638;28;20714;-90
2021/07/12 12:07:24;;;;;;;2.70;2.50;;;27.40;44.40;;;;;;5084112;28;20430;-90
2021/07/12 12:10:03;;;;;;;4.57;2.77;;;27.30;45.30;;;;;;5094678;28;20416;-91
2021/07/12 12:12:50;;;;;;;4.33;2.70;;;27.20;44.90;;;;;;5105621;28;20443;-90
2021/07/12 12:15:33;;;;;;;3.60;2.77;;;27.10;45.30;;;;;;5113579;28;20445;-90
2021/07/12 12:18:12;;;;;;;3.20;2.97;;;27.00;46.00;;;;;;5115731;28;20461;-90
2021/07/12 12:20:43;;;;;;;3.60;3.30;;;27.10;46.50;;;;;;5117973;28;20840;-90
2021/07/12 12:23:14;;;;;;;3.70;3.40;;;27.20;47.30;;;;;;5117921;28;20428;-90
2021/07/12 12:25:55;;;;;;;3.40;3.10;;;27.50;47.00;;;;;;5118730;28;20490;-90
2021/07/12 12:28:28;;;;;;;5.70;3.03;;;27.70;46.40;;;;;;5118547;28;20470;-90
2021/07/12 12:30:56;;;;;;;4.73;2.73;;;27.90;45.20;;;;;;5118932;28;20457;-91
2021/07/12 12:33:30;;;;;;;2.97;2.77;;;27.70;44.10;;;;;;5119464;28;20416;-90
2021/07/12 12:36:04;;;;;;;2.70;2.37;;;27.90;44.40;;;;;;5119210;28;20452;-90
2021/07/12 12:38:30;;;;;;;3.33;3.13;;;28.00;45.20;;;;;;5116971;28;20445;-90
2021/07/12 12:41:03;;;;;;;3.57;2.50;;;28.00;44.20;;;;;;5114096;28;20417;-90
2021/07/12 12:43:29;;;;;;;3.07;2.87;;;28.10;43.90;;;;;;5112642;28;20394;-91
2021/07/12 12:45:58;;;;;;;2.60;2.40;;;28.10;43.40;;;;;;5100424;28;20406;-91
2021/07/12 12:48:44;;;;;;;2.57;2.37;;;28.10;43.40;;;;;;5098102;28;20403;-90
2021/07/12 12:51:34;;;;;;;6.10;2.60;;;28.20;43.10;;;;;;5097437;28;20434;-91
2021/07/12 12:54:10;;;;;;;2.50;2.30;;;28.40;42.70;;;;;;5086655;28;20411;-90
2021/07/12 12:56:45;;;;;;;3.40;3.10;;;28.60;42.80;;;;;;5080399;28;20989;-90
2021/07/12 12:59:11;;;;;;;3.00;2.67;;;29.00;42.90;;;;;;5077824;28;20842;-90